Terminal Aerodrome Forecast
Issued by NWS

Current Version | Previous Version | Text Only | Print | Product List | Glossary On
Versions: 1 2 3 4 5 6 7 8 9 10 11 12 13 14 15 16 17 18 19 20
000
FTUS43 KOAX 261740
TAFSNY
TAF
KSNY 261740Z 2618/2718 VRB05KT P6SM -SHSN SCT020 OVC050
      TEMPO 2618/2620 1SM -SN BKN025
     FM270100 23007KT P6SM BKN120
     FM271500 27013KT P6SM BKN120=

USA.gov is the U.S. government's official web portal to all federal, state and local government web resources and services.